Time;durP1;ratioP1;P1;durP2;ratioP2;P2;SDS_P1;SDS_P2;PMS_P1;PMS_P2;Temp;Humidity;BMP_temperature;BMP_pressure;BME280_temperature;BME280_humidity;BME280_pressure;Samples;Min_cycle;Max_cycle;Signal;HPM_P1;HPM_P2
2024/05/04 00:02:11;;;;;;;;;;;9.90;99.90;;;;;;5005105;28;20731;-76
2024/05/04 00:04:36;;;;;;;;;;;10.00;99.90;;;;;;5027274;28;19925;-76
2024/05/04 00:07:02;;;;;;;;;;;10.20;99.90;;;;;;5007099;28;19917;-75
2024/05/04 00:09:27;;;;;;;;;;;10.30;99.90;;;;;;5017801;28;19967;-75
2024/05/04 00:11:53;;;;;;;;;;;10.50;99.90;;;;;;5008421;28;19929;-75
2024/05/04 00:14:18;;;;;;;;;;;10.60;99.90;;;;;;5019886;28;19921;-75
2024/05/04 00:16:44;;;;;;;;;;;10.70;99.90;;;;;;5000169;28;19917;-75
2024/05/04 00:19:09;;;;;;;;;;;10.70;99.90;;;;;;5014269;28;19953;-75
2024/05/04 00:21:35;;;;;;;;;;;10.80;99.90;;;;;;5003852;28;19921;-75
2024/05/04 00:24:00;;;;;;;;;;;10.80;99.90;;;;;;5021454;28;19971;-75
2024/05/04 00:26:26;;;;;;;;;;;10.80;99.90;;;;;;5020130;28;20385;-75
2024/05/04 00:28:51;;;;;;;;;;;10.80;99.90;;;;;;5001246;28;19925;-76
2024/05/04 00:31:17;;;;;;;;;;;10.90;99.90;;;;;;5019791;28;20739;-76
2024/05/04 00:33:43;;;;;;;;;;;10.80;99.90;;;;;;5006444;28;19921;-76
2024/05/04 00:36:08;;;;;;;;;;;10.70;99.90;;;;;;5014666;28;19921;-76
2024/05/04 00:38:34;;;;;;;;;;;10.70;99.90;;;;;;5007374;28;19983;-76
2024/05/04 00:40:59;;;;;;;;;;;10.60;99.90;;;;;;5018569;28;19936;-76
2024/05/04 00:43:25;;;;;;;;;;;10.60;99.90;;;;;;5003005;28;20956;-77
2024/05/04 00:45:50;;;;;;;;;;;10.50;99.90;;;;;;5017946;28;20016;-76
2024/05/04 00:48:16;;;;;;;;;;;10.50;99.90;;;;;;5003404;28;20027;-76
2024/05/04 00:50:42;;;;;;;;;;;10.40;99.90;;;;;;5014006;28;19921;-76
2024/05/04 00:53:08;;;;;;;;;;;10.30;99.90;;;;;;5006834;28;19917;-75
2024/05/04 00:55:33;;;;;;;;;;;10.20;99.90;;;;;;5012136;28;20437;-76
2024/05/04 00:57:59;;;;;;;;;;;10.10;99.90;;;;;;5004028;28;20004;-77
2024/05/04 01:00:28;;;;;;;;;;;10.10;99.90;;;;;;5016244;28;19979;-76
2024/05/04 01:02:53;;;;;;;;;;;10.20;99.90;;;;;;4999155;28;20397;-76
2024/05/04 01:05:19;;;;;;;;;;;10.30;99.90;;;;;;5018590;28;19921;-76
2024/05/04 01:07:45;;;;;;;;;;;10.30;99.90;;;;;;5016358;28;19952;-75
2024/05/04 01:10:11;;;;;;;;;;;10.30;99.90;;;;;;4997014;28;19921;-75
2024/05/04 01:12:36;;;;;;;;;;;10.40;99.90;;;;;;5013016;28;19921;-75
2024/05/04 01:15:03;;;;;;;;;;;10.40;99.90;;;;;;4999845;28;20676;-75
2024/05/04 01:17:28;;;;;;;;;;;10.60;99.90;;;;;;5015702;28;19921;-76
2024/05/04 01:19:54;;;;;;;;;;;10.60;99.90;;;;;;5006475;28;19971;-76
2024/05/04 01:22:19;;;;;;;;;;;10.70;99.90;;;;;;5013128;28;19920;-76
2024/05/04 01:24:45;;;;;;;;;;;10.80;99.90;;;;;;5003001;28;19955;-74
2024/05/04 01:27:10;;;;;;;;;;;10.90;99.90;;;;;;5017542;28;19917;-75
2024/05/04 01:29:36;;;;;;;;;;;10.90;99.90;;;;;;4994983;28;19921;-76
2024/05/04 01:32:01;;;;;;;;;;;10.90;99.90;;;;;;5016984;28;19922;-75
2024/05/04 01:34:27;;;;;;;;;;;10.90;99.90;;;;;;5007442;28;19913;-75
2024/05/04 01:36:53;;;;;;;;;;;10.90;99.90;;;;;;5017201;28;20012;-75
2024/05/04 01:39:18;;;;;;;;;;;10.80;99.90;;;;;;5003222;28;20207;-76
2024/05/04 01:41:44;;;;;;;;;;;10.80;99.90;;;;;;5011418;28;20505;-76
2024/05/04 01:44:10;;;;;;;;;;;10.70;99.90;;;;;;5003027;28;19929;-76
2024/05/04 01:46:35;;;;;;;;;;;10.70;99.90;;;;;;5018495;28;20370;-76
2024/05/04 01:49:01;;;;;;;;;;;10.70;99.90;;;;;;5012342;28;19928;-74
2024/05/04 01:51:26;;;;;;;;;;;10.70;99.90;;;;;;5004305;28;19948;-75
2024/05/04 01:53:52;;;;;;;;;;;10.70;99.90;;;;;;5016526;28;20369;-75
2024/05/04 01:56:18;;;;;;;;;;;10.70;99.90;;;;;;4998295;28;19921;-75
2024/05/04 01:58:43;;;;;;;;;;;10.60;99.90;;;;;;5015747;28;19913;-75
2024/05/04 02:01:14;;;;;;;;;;;10.50;99.90;;;;;;4999337;28;19913;-75
2024/05/04 02:03:40;;;;;;;;;;;10.40;99.90;;;;;;5011986;28;19964;-75
2024/05/04 02:06:05;;;;;;;;;;;10.40;99.90;;;;;;5004982;28;20043;-75
2024/05/04 02:08:31;;;;;;;;;;;10.30;99.90;;;;;;5016838;28;20304;-76
2024/05/04 02:10:56;;;;;;;;;;;10.20;99.90;;;;;;5001292;28;19928;-75
2024/05/04 02:13:22;;;;;;;;;;;10.20;99.90;;;;;;5016699;28;19964;-75
2024/05/04 02:15:48;;;;;;;;;;;10.20;99.90;;;;;;4997869;28;19922;-76
2024/05/04 02:18:13;;;;;;;;;;;10.20;99.90;;;;;;5018976;28;19964;-76
2024/05/04 02:20:39;;;;;;;;;;;10.10;99.90;;;;;;5002731;28;20536;-76
2024/05/04 02:23:05;;;;;;;;;;;10.00;99.90;;;;;;5010369;28;20413;-76
2024/05/04 02:25:30;;;;;;;;;;;10.10;99.90;;;;;;5006925;28;20079;-76
2024/05/04 02:27:56;;;;;;;;;;;10.00;99.90;;;;;;5014687;28;20424;-77
2024/05/04 02:30:21;;;;;;;;;;;10.00;99.90;;;;;;5011964;28;19913;-75
2024/05/04 02:32:47;;;;;;;;;;;10.00;99.90;;;;;;5007050;28;19928;-75
2024/05/04 02:35:12;;;;;;;;;;;9.90;99.90;;;;;;5013845;28;20825;-76
2024/05/04 02:37:38;;;;;;;;;;;9.70;99.90;;;;;;5006557;28;20008;-76
2024/05/04 02:40:04;;;;;;;;;;;9.80;99.90;;;;;;5018515;28;19956;-76
2024/05/04 02:42:29;;;;;;;;;;;9.70;99.90;;;;;;4997257;28;19921;-76
2024/05/04 02:44:57;;;;;;;;;;;9.70;99.90;;;;;;5013599;28;20216;-76
2024/05/04 02:47:23;;;;;;;;;;;9.60;99.90;;;;;;5004594;28;19944;-75
2024/05/04 02:49:48;;;;;;;;;;;9.50;99.90;;;;;;5011304;28;20365;-75
2024/05/04 02:52:14;;;;;;;;;;;9.40;99.90;;;;;;5005725;28;20003;-75
2024/05/04 02:54:39;;;;;;;;;;;9.30;99.90;;;;;;5015145;28;19927;-76
2024/05/04 02:57:05;;;;;;;;;;;9.20;99.90;;;;;;5002163;28;20000;-76
2024/05/04 02:59:30;;;;;;;;;;;9.10;99.90;;;;;;5019618;28;19921;-76
2024/05/04 03:01:56;;;;;;;;;;;9.10;99.90;;;;;;5003000;28;21454;-76
2024/05/04 03:04:22;;;;;;;;;;;9.00;99.90;;;;;;5018216;28;20270;-76
2024/05/04 03:06:47;;;;;;;;;;;8.90;99.90;;;;;;5016279;28;19932;-76
2024/05/04 03:09:13;;;;;;;;;;;8.80;99.90;;;;;;5009140;28;19928;-76
2024/05/04 03:11:40;;;;;;;;;;;8.70;99.90;;;;;;5018287;28;20194;-75
2024/05/04 03:14:05;;;;;;;;;;;8.80;99.90;;;;;;5010170;28;20012;-75
2024/05/04 03:16:31;;;;;;;;;;;8.80;99.90;;;;;;5011401;28;19921;-75
2024/05/04 03:18:56;;;;;;;;;;;8.70;99.90;;;;;;5010605;28;19917;-76
2024/05/04 03:21:22;;;;;;;;;;;8.60;99.90;;;;;;5022205;28;20016;-76
2024/05/04 03:23:47;;;;;;;;;;;8.60;99.90;;;;;;5004604;28;20643;-76
2024/05/04 03:26:13;;;;;;;;;;;8.60;99.90;;;;;;5019412;28;19921;-76
2024/05/04 03:28:40;;;;;;;;;;;8.50;99.90;;;;;;5006118;28;20007;-76
2024/05/04 03:31:09;;;;;;;;;;;8.40;99.90;;;;;;5018011;28;19921;-75
2024/05/04 03:33:37;;;;;;;;;;;8.20;99.90;;;;;;5006176;28;20004;-75
2024/05/04 03:36:02;;;;;;;;;;;8.00;99.90;;;;;;5015327;28;19968;-76
2024/05/04 03:38:28;;;;;;;;;;;8.00;99.90;;;;;;5008188;28;20500;-76
2024/05/04 03:40:53;;;;;;;;;;;7.90;99.90;;;;;;5024321;28;19962;-76
2024/05/04 03:43:19;;;;;;;;;;;7.90;99.90;;;;;;5004447;28;20351;-76
2024/05/04 03:45:45;;;;;;;;;;;7.80;99.90;;;;;;5014952;28;19928;-76
2024/05/04 03:48:10;;;;;;;;;;;7.90;99.90;;;;;;5017933;28;19955;-75
2024/05/04 03:50:36;;;;;;;;;;;7.90;99.90;;;;;;5048510;22;19956;-82
2024/05/04 03:53:01;;;;;;;;;;;7.90;99.90;;;;;;5039898;28;19934;-83
2024/05/04 03:55:27;;;;;;;;;;;7.80;99.90;;;;;;5013314;28;19917;-83
2024/05/04 03:57:52;;;;;;;;;;;7.70;99.90;;;;;;5026789;28;20278;-83
2024/05/04 04:00:18;;;;;;;;;;;7.70;99.90;;;;;;5019638;28;19920;-83
2024/05/04 04:02:43;;;;;;;;;;;7.60;99.90;;;;;;5037850;28;19913;-82
2024/05/04 04:05:09;;;;;;;;;;;7.60;99.90;;;;;;5022000;28;19932;-83
2024/05/04 04:07:34;;;;;;;;;;;7.50;99.90;;;;;;5033181;28;19920;-82
2024/05/04 04:10:00;;;;;;;;;;;7.50;99.90;;;;;;5017501;28;19921;-82
2024/05/04 04:12:25;;;;;;;;;;;7.50;99.90;;;;;;5030971;28;19913;-84
2024/05/04 04:14:51;;;;;;;;;;;7.50;99.90;;;;;;5016186;28;19943;-82
2024/05/04 04:17:16;;;;;;;;;;;7.50;99.90;;;;;;5023879;28;19951;-83
2024/05/04 04:19:42;;;;;;;;;;;7.60;99.90;;;;;;5022839;28;20975;-83
2024/05/04 04:22:07;;;;;;;;;;;7.60;99.90;;;;;;5026746;28;19914;-83
2024/05/04 04:24:33;;;;;;;;;;;7.50;99.90;;;;;;5013177;28;19918;-84
2024/05/04 04:26:58;;;;;;;;;;;7.50;99.90;;;;;;5025619;28;19960;-83
2024/05/04 04:29:24;;;;;;;;;;;7.50;99.90;;;;;;5025024;28;19925;-83
2024/05/04 04:31:49;;;;;;;;;;;7.50;99.90;;;;;;5021501;28;20571;-82
2024/05/04 04:34:15;;;;;;;;;;;7.50;99.90;;;;;;5030041;28;19927;-82
2024/05/04 04:36:40;;;;;;;;;;;7.60;99.90;;;;;;5012238;28;20500;-82
2024/05/04 04:39:07;;;;;;;;;;;7.50;99.90;;;;;;5029636;28;19975;-82
2024/05/04 04:41:33;;;;;;;;;;;7.50;99.90;;;;;;5025085;28;19920;-82
2024/05/04 04:43:58;;;;;;;;;;;7.50;99.90;;;;;;5023600;28;19978;-83
2024/05/04 04:46:24;;;;;;;;;;;7.50;99.90;;;;;;5017640;28;20314;-83
2024/05/04 04:48:49;;;;;;;;;;;7.50;99.90;;;;;;5026373;28;20347;-83
2024/05/04 04:51:15;;;;;;;;;;;7.40;99.90;;;;;;5015820;28;19928;-82
2024/05/04 04:53:40;;;;;;;;;;;7.40;99.90;;;;;;5029126;28;19921;-83
2024/05/04 04:56:06;;;;;;;;;;;7.40;99.90;;;;;;5011827;28;19921;-83
2024/05/04 04:58:31;;;;;;;;;;;7.40;99.90;;;;;;5024732;28;19921;-83
2024/05/04 05:00:57;;;;;;;;;;;7.40;99.90;;;;;;5014691;28;19964;-84
2024/05/04 05:03:23;;;;;;;;;;;7.50;99.90;;;;;;5023044;28;19978;-82
2024/05/04 05:05:49;;;;;;;;;;;7.50;99.90;;;;;;5019319;28;19913;-83
2024/05/04 05:08:14;;;;;;;;;;;7.50;99.90;;;;;;5031156;28;19921;-83
2024/05/04 05:10:40;;;;;;;;;;;7.50;99.90;;;;;;5040347;28;19988;-81
2024/05/04 05:13:05;;;;;;;;;;;7.50;99.90;;;;;;5046250;28;20015;-81
2024/05/04 05:15:31;;;;;;;;;;;7.50;99.90;;;;;;5052746;28;19913;-81
2024/05/04 05:17:56;;;;;;;;;;;7.50;99.90;;;;;;5044849;28;19925;-83
2024/05/04 05:20:22;;;;;;;;;;;7.60;99.90;;;;;;5053150;28;19959;-84
2024/05/04 05:22:47;;;;;;;;;;;7.60;99.90;;;;;;5039954;28;19925;-82
2024/05/04 05:25:13;;;;;;;;;;;7.60;99.90;;;;;;5033861;28;20372;-82
2024/05/04 05:27:38;;;;;;;;;;;7.50;99.90;;;;;;5019508;28;20016;-83
2024/05/04 05:30:04;;;;;;;;;;;7.50;99.90;;;;;;5025781;28;19921;-81
2024/05/04 05:32:30;;;;;;;;;;;7.60;99.90;;;;;;5023994;28;19921;-82
2024/05/04 05:34:55;;;;;;;;;;;7.70;99.90;;;;;;5030902;28;19921;-83
2024/05/04 05:37:21;;;;;;;;;;;7.80;99.90;;;;;;5018061;28;20502;-82
2024/05/04 05:39:46;;;;;;;;;;;7.80;99.90;;;;;;5031707;28;19967;-83
2024/05/04 05:42:16;;;;;;;;;;;7.90;99.90;;;;;;5017002;28;19928;-82
2024/05/04 05:44:42;;;;;;;;;;;7.90;99.90;;;;;;5030230;28;19928;-82
2024/05/04 05:47:08;;;;;;;;;;;8.00;99.90;;;;;;5031077;28;19932;-82
2024/05/04 05:49:33;;;;;;;;;;;8.00;99.90;;;;;;5019378;28;19921;-82
2024/05/04 05:51:59;;;;;;;;;;;8.00;99.90;;;;;;5030748;28;19928;-83
2024/05/04 05:54:25;;;;;;;;;;;8.10;99.90;;;;;;5003679;28;19913;-82
2024/05/04 05:56:51;;;;;;;;;;;8.30;99.90;;;;;;5022303;28;20217;-83
2024/05/04 05:59:16;;;;;;;;;;;8.50;99.90;;;;;;5014099;28;20012;-83
2024/05/04 06:01:42;;;;;;;;;;;8.70;99.90;;;;;;5025325;28;20340;-82
2024/05/04 06:04:07;;;;;;;;;;;8.80;99.90;;;;;;5012596;28;20016;-83
2024/05/04 06:06:34;;;;;;;;;;;9.00;99.90;;;;;;5029845;28;20362;-83
2024/05/04 06:08:59;;;;;;;;;;;9.10;99.90;;;;;;5005498;28;20413;-83
2024/05/04 06:11:25;;;;;;;;;;;9.10;99.90;;;;;;5026441;28;19924;-83
2024/05/04 06:13:50;;;;;;;;;;;9.40;99.90;;;;;;5017293;28;20392;-83
2024/05/04 06:16:16;;;;;;;;;;;9.70;99.90;;;;;;5022459;28;19921;-83
2024/05/04 06:18:41;;;;;;;;;;;9.90;99.90;;;;;;5001704;28;19921;-82
2024/05/04 06:21:08;;;;;;;;;;;10.00;99.90;;;;;;5027009;28;20384;-83
2024/05/04 06:23:34;;;;;;;;;;;10.30;99.90;;;;;;5014964;28;20054;-83
2024/05/04 06:26:00;;;;;;;;;;;10.60;99.90;;;;;;5029556;28;20015;-83
2024/05/04 06:28:25;;;;;;;;;;;10.90;99.90;;;;;;5039442;28;19921;-83
2024/05/04 06:30:51;;;;;;;;;;;11.10;99.90;;;;;;5011795;28;19920;-83
2024/05/04 06:33:16;;;;;;;;;;;11.00;99.90;;;;;;5033980;28;19917;-84
2024/05/04 06:35:42;;;;;;;;;;;11.20;99.90;;;;;;5015616;28;19932;-83
2024/05/04 06:38:08;;;;;;;;;;;11.60;99.90;;;;;;5031178;28;19928;-83
2024/05/04 06:40:34;;;;;;;;;;;11.90;99.90;;;;;;5019298;28;19921;-82
2024/05/04 06:42:59;;;;;;;;;;;12.20;99.90;;;;;;5029411;28;19944;-82
2024/05/04 06:45:25;;;;;;;;;;;12.10;99.90;;;;;;5020538;28;19921;-83
2024/05/04 06:47:50;;;;;;;;;;;12.10;99.90;;;;;;5030390;28;19967;-84
2024/05/04 06:50:16;;;;;;;;;;;12.20;99.90;;;;;;5018110;28;20297;-83
2024/05/04 06:52:42;;;;;;;;;;;12.40;99.90;;;;;;5035635;28;20592;-84
2024/05/04 06:55:07;;;;;;;;;;;12.60;99.90;;;;;;5033421;28;19976;-83
2024/05/04 06:57:33;;;;;;;;;;;12.60;99.90;;;;;;5044964;28;20003;-83
2024/05/04 06:59:58;;;;;;;;;;;12.60;99.90;;;;;;5040177;28;19980;-82
2024/05/04 07:02:24;;;;;;;;;;;12.70;99.90;;;;;;5047051;28;20136;-83
2024/05/04 07:04:50;;;;;;;;;;;12.60;99.90;;;;;;5035758;28;19964;-82
2024/05/04 07:07:15;;;;;;;;;;;12.80;99.90;;;;;;5048444;28;19921;-83
2024/05/04 07:09:41;;;;;;;;;;;13.00;99.90;;;;;;5051668;28;20080;-82
2024/05/04 07:12:06;;;;;;;;;;;13.20;99.90;;;;;;5040052;28;19921;-83
2024/05/04 07:14:32;;;;;;;;;;;13.30;99.90;;;;;;5052019;28;19921;-83
2024/05/04 07:16:58;;;;;;;;;;;13.20;99.90;;;;;;5017823;28;19920;-83
2024/05/04 07:19:24;;;;;;;;;;;13.20;99.90;;;;;;5032151;28;19921;-82
2024/05/04 07:21:50;;;;;;;;;;;13.20;99.90;;;;;;5023273;28;20671;-83
2024/05/04 07:24:15;;;;;;;;;;;13.20;99.90;;;;;;5029169;28;19921;-84
2024/05/04 07:26:42;;;;;;;;;;;13.20;99.90;;;;;;5018964;28;20137;-83
2024/05/04 07:29:07;;;;;;;;;;;13.30;99.90;;;;;;5027307;28;19921;-84
2024/05/04 07:31:33;;;;;;;;;;;13.40;99.90;;;;;;5019777;28;20381;-84
2024/05/04 07:34:01;;;;;;;;;;;13.30;99.90;;;;;;5024211;28;19960;-84
2024/05/04 07:36:27;;;;;;;;;;;13.30;99.90;;;;;;5008216;28;20124;-84
2024/05/04 07:38:55;;;;;;;;;;;13.40;99.90;;;;;;5024707;28;19928;-84
2024/05/04 07:41:24;;;;;;;;;;;13.20;99.90;;;;;;5017337;28;20372;-84
2024/05/04 07:43:49;;;;;;;;;;;13.10;99.90;;;;;;5022521;28;19986;-84
2024/05/04 07:46:15;;;;;;;;;;;12.90;99.90;;;;;;5016429;28;19921;-84
2024/05/04 07:48:41;;;;;;;;;;;13.00;99.90;;;;;;5025818;28;20411;-84
2024/05/04 07:51:06;;;;;;;;;;;13.10;99.90;;;;;;5024638;28;20360;-82
2024/05/04 07:53:32;;;;;;;;;;;13.10;99.90;;;;;;5016982;28;19925;-84
2024/05/04 07:55:57;;;;;;;;;;;13.10;99.90;;;;;;5021141;28;19921;-84
2024/05/04 07:58:23;;;;;;;;;;;13.20;99.90;;;;;;5011361;28;20054;-84
2024/05/04 08:00:52;;;;;;;;;;;13.30;99.90;;;;;;5027445;28;19983;-84
2024/05/04 08:03:17;;;;;;;;;;;13.40;99.90;;;;;;5012475;28;19917;-83
2024/05/04 08:05:46;;;;;;;;;;;13.60;99.90;;;;;;5025800;28;20012;-84
2024/05/04 08:08:12;;;;;;;;;;;13.80;99.90;;;;;;5016748;28;19913;-83
2024/05/04 08:10:38;;;;;;;;;;;13.60;99.90;;;;;;5023266;28;19991;-84
2024/05/04 08:13:04;;;;;;;;;;;13.80;99.90;;;;;;5020845;28;20373;-84
2024/05/04 08:15:30;;;;;;;;;;;13.70;99.90;;;;;;5032109;28;19919;-84
2024/05/04 08:17:56;;;;;;;;;;;13.90;99.90;;;;;;5018217;28;19920;-84
2024/05/04 08:20:24;;;;;;;;;;;13.70;99.90;;;;;;5030796;28;19913;-84
2024/05/04 08:22:52;;;;;;;;;;;13.70;99.90;;;;;;5016882;28;19921;-84
2024/05/04 08:25:18;;;;;;;;;;;13.80;99.90;;;;;;5026827;28;20369;-85
2024/05/04 08:27:46;;;;;;;;;;;14.00;99.90;;;;;;5012005;28;20460;-84
2024/05/04 08:30:15;;;;;;;;;;;13.90;99.90;;;;;;5022019;28;19921;-84
2024/05/04 08:32:41;;;;;;;;;;;13.70;99.90;;;;;;5018977;28;20014;-84
2024/05/04 08:35:06;;;;;;;;;;;13.60;99.90;;;;;;5025124;28;19924;-84
2024/05/04 08:37:32;;;;;;;;;;;13.60;99.90;;;;;;5020704;28;19913;-85
2024/05/04 08:39:58;;;;;;;;;;;13.80;99.90;;;;;;5018295;28;19913;-84
2024/05/04 08:42:24;;;;;;;;;;;13.70;99.90;;;;;;5038086;28;20418;-84
2024/05/04 08:44:50;;;;;;;;;;;13.90;99.90;;;;;;5009961;28;19921;-85
2024/05/04 08:47:16;;;;;;;;;;;14.10;99.90;;;;;;5027394;28;19928;-85
2024/05/04 08:49:44;;;;;;;;;;;14.20;99.90;;;;;;5013463;28;20610;-84
2024/05/04 08:52:11;;;;;;;;;;;14.30;99.90;;;;;;5025592;28;19929;-82
2024/05/04 08:54:44;;;;;;;;;;;14.30;99.90;;;;;;5015258;28;19931;-85
2024/05/04 08:57:10;;;;;;;;;;;14.20;99.90;;;;;;5016481;28;20494;-84
2024/05/04 08:59:39;;;;;;;;;;;14.10;99.90;;;;;;5014419;28;19928;-85
2024/05/04 09:02:06;;;;;;;;;;;14.20;99.90;;;;;;5025150;28;19925;-85
2024/05/04 09:04:33;;;;;;;;;;;14.10;99.90;;;;;;5011239;28;19967;-83
2024/05/04 09:07:03;;;;;;;;;;;14.10;99.90;;;;;;5024158;28;19964;-84
2024/05/04 09:09:29;;;;;;;;;;;14.30;99.90;;;;;;5010487;28;20321;-84
2024/05/04 09:11:55;;;;;;;;;;;14.60;99.90;;;;;;5027027;28;19921;-83
2024/05/04 09:14:23;;;;;;;;;;;14.60;99.90;;;;;;5014509;28;22279;-83
2024/05/04 09:16:49;;;;;;;;;;;14.70;99.90;;;;;;5024946;28;19980;-85
2024/05/04 09:19:16;;;;;;;;;;;14.80;99.90;;;;;;5016774;28;19943;-84
2024/05/04 09:21:42;;;;;;;;;;;14.70;99.90;;;;;;5026878;28;19927;-84
2024/05/04 09:24:10;;;;;;;;;;;14.90;99.90;;;;;;5019629;28;19921;-84
2024/05/04 09:26:36;;;;;;;;;;;15.00;99.90;;;;;;5014751;28;19921;-84
2024/05/04 09:29:01;;;;;;;;;;;14.70;99.90;;;;;;5024778;28;19929;-84
2024/05/04 09:31:28;;;;;;;;;;;14.60;99.90;;;;;;5012113;28;19939;-84
2024/05/04 09:33:55;;;;;;;;;;;14.70;99.90;;;;;;5024535;28;19925;-84
2024/05/04 09:36:26;;;;;;;;;;;14.60;99.90;;;;;;5010774;28;20292;-84
2024/05/04 09:38:52;;;;;;;;;;;14.80;99.90;;;;;;5025610;28;19921;-84
2024/05/04 09:41:18;;;;;;;;;;;14.80;99.90;;;;;;5012031;28;20319;-84
2024/05/04 09:43:44;;;;;;;;;;;15.00;99.90;;;;;;5025198;28;20415;-85
2024/05/04 09:46:10;;;;;;;;;;;14.90;99.90;;;;;;5020458;28;19917;-85
2024/05/04 09:48:36;;;;;;;;;;;14.90;99.90;;;;;;5029689;28;19921;-84
2024/05/04 09:51:02;;;;;;;;;;;14.90;99.90;;;;;;5017633;28;19925;-86
2024/05/04 09:53:29;;;;;;;;;;;15.10;99.90;;;;;;5034828;28;19928;-84
2024/05/04 09:56:01;;;;;;;;;;;15.30;99.90;;;;;;5014412;28;20383;-85
2024/05/04 09:58:28;;;;;;;;;;;15.50;99.90;;;;;;5043691;28;19931;-81
2024/05/04 10:00:59;;;;;;;;;;;15.40;99.90;;;;;;5048770;28;20227;-83
2024/05/04 10:03:30;;;;;;;;;;;15.30;99.90;;;;;;5056452;28;19912;-84
2024/05/04 10:05:56;;;;;;;;;;;15.40;99.90;;;;;;5047424;28;20058;-84
2024/05/04 10:08:22;;;;;;;;;;;15.50;99.90;;;;;;5039500;28;19914;-84
2024/05/04 10:10:47;;;;;;;;;;;15.60;99.90;;;;;;5034161;28;19905;-84
2024/05/04 10:13:17;;;;;;;;;;;15.80;99.90;;;;;;5029166;28;19913;-84
2024/05/04 10:15:42;;;;;;;;;;;16.00;99.90;;;;;;5040257;28;19920;-84
2024/05/04 10:18:08;;;;;;;;;;;16.00;99.90;;;;;;5029022;28;19917;-85
2024/05/04 10:20:50;;;;;;;;;;;16.20;99.90;;;;;;5039303;28;19913;-83
2024/05/04 10:23:16;;;;;;;;;;;16.20;99.90;;;;;;5024206;28;20241;-84
2024/05/04 10:25:49;;;;;;;;;;;15.90;99.90;;;;;;5035779;28;19928;-84
2024/05/04 10:28:15;;;;;;;;;;;15.70;99.90;;;;;;5027615;28;19913;-84
2024/05/04 10:30:41;;;;;;;;;;;15.50;99.90;;;;;;5034299;28;19928;-84
2024/05/04 10:33:06;;;;;;;;;;;15.60;99.90;;;;;;5009717;28;19921;-83
2024/05/04 10:35:37;;;;;;;;;;;15.80;99.90;;;;;;5013437;28;19929;-85
2024/05/04 10:38:03;;;;;;;;;;;15.90;99.90;;;;;;5002967;28;19921;-84
2024/05/04 10:40:37;;;;;;;;;;;15.80;99.90;;;;;;5012869;28;20388;-84
2024/05/04 10:43:04;;;;;;;;;;;15.70;99.90;;;;;;4998189;28;20239;-83
2024/05/04 10:45:32;;;;;;;;;;;15.40;99.90;;;;;;5008374;28;19947;-84
2024/05/04 10:48:00;;;;;;;;;;;15.50;99.90;;;;;;5022114;28;19940;-83
2024/05/04 10:50:29;;;;;;;;;;;15.50;99.90;;;;;;5010568;28;19979;-85
2024/05/04 10:52:54;;;;;;;;;;;15.50;99.90;;;;;;5002275;28;19920;-84
2024/05/04 10:55:20;;;;;;;;;;;15.80;99.90;;;;;;5008909;28;19917;-83
2024/05/04 10:57:46;;;;;;;;;;;15.80;99.90;;;;;;4993795;28;19921;-85
2024/05/04 11:00:21;;;;;;;;;;;15.70;99.90;;;;;;5010046;28;19930;-83
2024/05/04 11:02:48;;;;;;;;;;;15.50;99.90;;;;;;4999176;28;19952;-85
2024/05/04 11:05:13;;;;;;;;;;;15.60;99.90;;;;;;5007110;28;19948;-85
2024/05/04 11:07:39;;;;;;;;;;;15.90;99.90;;;;;;5009275;28;20085;-85
2024/05/04 11:10:05;;;;;;;;;;;15.80;99.90;;;;;;4993319;28;20396;-85
2024/05/04 11:12:32;;;;;;;;;;;15.60;99.90;;;;;;5009622;28;20311;-85
2024/05/04 11:14:57;;;;;;;;;;;15.60;99.90;;;;;;4999578;28;19932;-85
2024/05/04 11:17:23;;;;;;;;;;;15.60;99.90;;;;;;5007109;28;19925;-84
2024/05/04 11:19:53;;;;;;;;;;;15.50;99.90;;;;;;5000364;28;20297;-85
2024/05/04 11:22:22;;;;;;;;;;;15.60;99.90;;;;;;5011524;28;19926;-85
2024/05/04 11:24:47;;;;;;;;;;;15.80;99.90;;;;;;4997675;28;19924;-83
2024/05/04 11:27:13;;;;;;;;;;;15.80;99.90;;;;;;5006652;28;19913;-84
2024/05/04 11:29:42;;;;;;;;;;;16.00;99.90;;;;;;4996173;28;19921;-84
2024/05/04 11:32:07;;;;;;;;;;;15.70;99.90;;;;;;5007170;28;19937;-84
2024/05/04 11:34:40;;;;;;;;;;;16.00;99.90;;;;;;5004122;28;19921;-84
2024/05/04 11:37:08;;;;;;;;;;;16.20;99.90;;;;;;5008282;28;19923;-84
2024/05/04 11:39:34;;;;;;;;;;;16.20;99.90;;;;;;4998598;28;19941;-84
2024/05/04 11:41:59;;;;;;;;;;;16.20;99.90;;;;;;5009538;28;19936;-85
2024/05/04 11:44:25;;;;;;;;;;;16.50;99.90;;;;;;4990611;28;20671;-85
2024/05/04 11:46:50;;;;;;;;;;;16.40;99.90;;;;;;5013382;28;19921;-84
2024/05/04 11:49:16;;;;;;;;;;;16.50;99.90;;;;;;5011077;28;19921;-83
2024/05/04 11:51:44;;;;;;;;;;;16.20;99.90;;;;;;5008757;28;19951;-83
2024/05/04 11:54:09;;;;;;;;;;;16.20;99.90;;;;;;5011732;28;19963;-84
2024/05/04 11:56:37;;;;;;;;;;;16.10;99.90;;;;;;4996988;28;20035;-84
2024/05/04 11:59:03;;;;;;;;;;;16.40;99.90;;;;;;5005413;28;20024;-84
2024/05/04 12:01:29;;;;;;;;;;;16.70;99.90;;;;;;4999882;28;19918;-84
2024/05/04 12:03:55;;;;;;;;;;;16.80;99.90;;;;;;5004191;28;19932;-83
2024/05/04 12:06:26;;;;;;;;;;;16.90;99.90;;;;;;5000492;28;19932;-85
2024/05/04 12:08:52;;;;;;;;;;;16.80;99.90;;;;;;5009526;28;19944;-85
2024/05/04 12:11:18;;;;;;;;;;;16.10;99.90;;;;;;4997205;28;19913;-84
2024/05/04 12:13:45;;;;;;;;;;;16.00;99.90;;;;;;5024984;28;19929;-84
2024/05/04 12:16:10;;;;;;;;;;;16.40;99.90;;;;;;5009645;28;19937;-84
2024/05/04 12:18:41;;;;;;;;;;;16.40;99.90;;;;;;5006595;28;20257;-84
2024/05/04 12:21:07;;;;;;;;;;;16.40;99.90;;;;;;4999521;28;20412;-84
2024/05/04 12:23:35;;;;;;;;;;;16.60;99.90;;;;;;5010370;28;19912;-84
2024/05/04 12:26:01;;;;;;;;;;;16.50;99.90;;;;;;4998347;28;20007;-84
2024/05/04 12:28:29;;;;;;;;;;;16.60;99.90;;;;;;5010336;28;19921;-84
2024/05/04 12:30:55;;;;;;;;;;;17.20;99.90;;;;;;5003597;28;19925;-83
2024/05/04 12:33:24;;;;;;;;;;;17.40;99.90;;;;;;5014915;28;19918;-83
2024/05/04 12:35:52;;;;;;;;;;;17.40;99.90;;;;;;5006979;28;19936;-83
2024/05/04 12:38:18;;;;;;;;;;;17.40;99.90;;;;;;5014037;28;19921;-85
2024/05/04 12:40:52;;;;;;;;;;;17.60;99.90;;;;;;5013208;28;20360;-84
2024/05/04 12:43:17;;;;;;;;;;;17.00;99.90;;;;;;5012470;28;19949;-83
2024/05/04 12:45:43;;;;;;;;;;;17.10;99.90;;;;;;5010798;28;20373;-84
2024/05/04 12:48:08;;;;;;;;;;;16.80;99.90;;;;;;5006361;28;19921;-84
2024/05/04 12:50:37;;;;;;;;;;;16.70;99.90;;;;;;5015463;28;19921;-84
2024/05/04 12:53:03;;;;;;;;;;;16.60;99.90;;;;;;5006362;28;19920;-84
2024/05/04 12:55:38;;;;;;;;;;;16.60;99.90;;;;;;5013484;28;19925;-84
2024/05/04 12:58:06;;;;;;;;;;;16.70;99.90;;;;;;4996589;28;19917;-84
2024/05/04 13:00:32;;;;;;;;;;;17.50;99.90;;;;;;5013540;28;20301;-84
2024/05/04 13:02:58;;;;;;;;;;;18.50;99.90;;;;;;4997680;28;19922;-83
2024/05/04 13:05:23;;;;;;;;;;;20.20;99.90;;;;;;5004776;28;20084;-83
2024/05/04 13:07:49;;;;;;;;;;;20.60;99.90;;;;;;4998636;28;19921;-83
2024/05/04 13:10:15;;;;;;;;;;;20.40;99.90;;;;;;5006132;28;21399;-83
2024/05/04 13:12:43;;;;;;;;;;;20.30;99.90;;;;;;5000285;28;20270;-85
2024/05/04 13:15:08;;;;;;;;;;;20.00;99.90;;;;;;5010578;28;20291;-83
2024/05/04 13:17:39;;;;;;;;;;;19.80;99.90;;;;;;4991292;28;19922;-84
2024/05/04 13:20:05;;;;;;;;;;;19.90;99.90;;;;;;5008070;28;19960;-84
2024/05/04 13:22:31;;;;;;;;;;;20.50;99.90;;;;;;5002532;28;20997;-84
2024/05/04 13:24:56;;;;;;;;;;;20.50;99.90;;;;;;5004237;28;20392;-84
2024/05/04 13:27:22;;;;;;;;;;;20.90;99.90;;;;;;5005083;28;19960;-84
2024/05/04 13:29:48;;;;;;;;;;;22.00;99.90;;;;;;5008786;28;20676;-85
2024/05/04 13:32:15;;;;;;;;;;;22.10;99.90;;;;;;5026538;28;19909;-83
2024/05/04 13:34:43;;;;;;;;;;;23.10;99.90;;;;;;5007873;28;21349;-85
2024/05/04 13:37:09;;;;;;;;;;;22.90;99.90;;;;;;5006457;28;19932;-83
2024/05/04 13:39:34;;;;;;;;;;;22.00;99.90;;;;;;5003252;28;19921;-84
2024/05/04 13:42:00;;;;;;;;;;;22.20;99.90;;;;;;5028583;28;19929;-84
2024/05/04 13:44:25;;;;;;;;;;;21.60;99.90;;;;;;4996045;28;19921;-84
2024/05/04 13:46:51;;;;;;;;;;;21.50;99.90;;;;;;5007357;28;19921;-84
2024/05/04 13:49:17;;;;;;;;;;;20.60;99.90;;;;;;4999314;28;19956;-84
2024/05/04 13:51:42;;;;;;;;;;;21.80;99.90;;;;;;5003388;28;19925;-84
2024/05/04 13:54:08;;;;;;;;;;;21.50;99.90;;;;;;5003809;28;19951;-85
2024/05/04 13:56:35;;;;;;;;;;;21.90;99.90;;;;;;5009722;28;19928;-85
2024/05/04 13:59:00;;;;;;;;;;;22.60;99.90;;;;;;5009610;28;19912;-82
2024/05/04 14:01:26;;;;;;;;;;;22.20;99.90;;;;;;5009544;28;19921;-85
2024/05/04 14:03:52;;;;;;;;;;;22.20;99.90;;;;;;4998349;28;20663;-84
2024/05/04 14:06:20;;;;;;;;;;;22.70;98.30;;;;;;5008037;28;19939;-84
2024/05/04 14:08:46;;;;;;;;;;;22.50;98.70;;;;;;5003514;28;19964;-84
2024/05/04 14:11:11;;;;;;;;;;;22.50;99.40;;;;;;5005810;28;19971;-84
2024/05/04 14:13:37;;;;;;;;;;;23.70;97.70;;;;;;5009509;28;19932;-84
2024/05/04 14:16:03;;;;;;;;;;;23.20;96.00;;;;;;4997880;28;19921;-84